createdAt,value
2022-09-01T00:01:39.221Z,15.40
2022-09-01T00:04:06.507Z,15.60
2022-09-01T00:06:34.635Z,16.30
2022-09-01T00:09:03.793Z,15.40
2022-09-01T00:11:31.010Z,15.40
2022-09-01T00:13:57.958Z,15.50
2022-09-01T00:16:25.368Z,15.30
2022-09-01T00:18:53.331Z,15.30
2022-09-01T00:21:22.506Z,15.60
2022-09-01T00:23:49.255Z,15.30
2022-09-01T00:28:43.211Z,15.40
2022-09-01T00:31:11.131Z,15.90
2022-09-01T00:33:38.314Z,15.30
2022-09-01T00:38:32.889Z,16.30
2022-09-01T00:41:00.836Z,15.80
2022-09-01T00:43:40.002Z,15.20
2022-09-01T00:46:10.071Z,15.40
2022-09-01T00:51:05.276Z,15.30
2022-09-01T00:53:32.557Z,15.30
2022-09-01T00:55:59.564Z,15.20
2022-09-01T00:58:26.348Z,15.20
2022-09-01T01:00:53.099Z,15.30
2022-09-01T01:03:19.857Z,15.30
2022-09-01T01:05:54.285Z,15.30
2022-09-01T01:08:34.351Z,16.40
2022-09-01T01:11:09.553Z,15.30
2022-09-01T01:13:56.278Z,15.30
2022-09-01T01:16:24.219Z,15.30
2022-09-01T01:18:51.526Z,15.10
2022-09-01T01:21:39.582Z,15.30
2022-09-01T01:24:20.758Z,15.30
2022-09-01T01:29:14.922Z,15.30
2022-09-01T01:36:38.505Z,15.30
2022-09-01T01:39:10.836Z,15.40
2022-09-01T01:41:40.948Z,15.90
2022-09-01T01:44:07.924Z,15.30
2022-09-01T01:46:35.445Z,15.30
2022-09-01T01:58:56.525Z,15.30
2022-09-01T02:01:25.305Z,15.20
2022-09-01T02:03:54.812Z,16.20
2022-09-01T02:06:24.462Z,15.20
2022-09-01T02:08:52.576Z,15.20
2022-09-01T02:15:07.590Z,15.20
2022-09-01T02:17:34.322Z,15.10
2022-09-01T02:20:01.057Z,15.20
2022-09-01T02:22:28.528Z,15.20
2022-09-01T02:24:57.539Z,15.10
2022-09-01T02:27:25.785Z,15.10
2022-09-01T02:29:53.761Z,15.10
2022-09-01T02:32:21.982Z,15.10
2022-09-01T02:34:53.667Z,15.10
2022-09-01T02:37:25.391Z,15.20
2022-09-01T02:39:57.570Z,15.20
2022-09-01T02:42:27.568Z,15.10
2022-09-01T02:47:23.247Z,15.10
2022-09-01T02:52:20.647Z,15.10
2022-09-01T02:54:49.068Z,15.10
2022-09-01T02:57:16.623Z,15.10
2022-09-01T02:59:44.008Z,15.10
2022-09-01T03:02:10.825Z,15.00
2022-09-01T03:04:37.797Z,15.00
2022-09-01T03:07:05.511Z,16.10
2022-09-01T03:12:02.632Z,15.10
2022-09-01T03:14:30.041Z,15.10
2022-09-01T03:16:57.715Z,15.10
2022-09-01T03:21:51.759Z,15.10
2022-09-01T03:24:18.678Z,15.10
2022-09-01T03:26:45.527Z,15.10
2022-09-01T03:29:16.555Z,15.10
2022-09-01T03:31:43.543Z,16.20
2022-09-01T03:34:11.100Z,15.00
2022-09-01T03:36:37.920Z,15.00
2022-09-01T03:39:04.650Z,15.00
2022-09-01T03:41:31.402Z,12.30
2022-09-01T03:43:58.860Z,15.00
2022-09-01T03:46:26.720Z,15.00
2022-09-01T03:48:58.571Z,15.20
2022-09-01T03:51:25.648Z,15.40
2022-09-01T03:53:57.378Z,15.00
2022-09-01T03:56:27.410Z,15.00
2022-09-01T03:58:56.197Z,15.00
2022-09-01T04:01:23.881Z,15.00
2022-09-01T04:03:52.179Z,17.30
2022-09-01T04:06:19.433Z,14.90
2022-09-01T04:08:47.288Z,14.90
2022-09-01T04:11:23.561Z,14.90
2022-09-01T04:13:50.784Z,14.90
2022-09-01T04:16:39.345Z,14.80
2022-09-01T04:19:16.036Z,14.80
2022-09-01T04:21:43.913Z,14.30
2022-09-01T04:24:12.180Z,15.40
2022-09-01T04:29:09.151Z,14.80
2022-09-01T04:31:37.055Z,14.80
2022-09-01T04:34:03.833Z,14.80
2022-09-01T04:39:01.565Z,14.80
2022-09-01T04:41:32.474Z,14.80
2022-09-01T04:44:01.803Z,14.80
2022-09-01T04:53:57.410Z,14.80
2022-09-01T04:56:25.233Z,14.80
2022-09-01T04:58:52.210Z,14.80
2022-09-01T05:01:26.271Z,14.80
2022-09-01T05:04:04.017Z,14.80
2022-09-01T05:09:00.678Z,14.80
2022-09-01T05:11:27.821Z,15.20
2022-09-01T05:13:57.589Z,14.80
2022-09-01T05:18:57.108Z,14.80
2022-09-01T05:21:28.298Z,14.90
2022-09-01T05:23:56.810Z,15.00
2022-09-01T05:26:26.133Z,15.00
2022-09-01T05:28:54.873Z,16.90
2022-09-01T05:31:22.792Z,13.80
2022-09-01T05:33:50.857Z,15.10
2022-09-01T05:36:20.276Z,15.20
2022-09-01T05:41:15.969Z,15.20
2022-09-01T05:43:47.069Z,19.70
2022-09-01T05:46:19.050Z,15.40
2022-09-01T05:48:46.581Z,15.50
2022-09-01T05:54:08.193Z,15.90
2022-09-01T05:56:43.523Z,16.30
2022-09-01T05:59:26.853Z,16.30
2022-09-01T06:01:54.635Z,16.50
2022-09-01T06:04:22.859Z,16.40
2022-09-01T06:07:06.027Z,16.30
2022-09-01T06:09:40.623Z,16.40
2022-09-01T06:12:09.200Z,16.50
2022-09-01T06:14:36.217Z,16.60
2022-09-01T06:17:03.454Z,16.60
2022-09-01T06:22:04.889Z,16.80
2022-09-01T06:24:31.544Z,17.00
2022-09-01T06:26:59.026Z,17.70
2022-09-01T06:31:52.898Z,16.80
2022-09-01T06:34:19.652Z,16.90
2022-09-01T06:36:48.500Z,17.10
2022-09-01T06:39:19.998Z,16.90
2022-09-01T06:41:52.666Z,17.00
2022-09-01T06:46:50.846Z,16.90
2022-09-01T06:49:17.699Z,16.90
2022-09-01T06:51:49.745Z,16.90
2022-09-01T06:56:51.402Z,16.80
2022-09-01T06:59:19.594Z,16.70
2022-09-01T07:01:49.002Z,16.70
2022-09-01T07:04:21.407Z,16.80
2022-09-01T07:09:47.812Z,18.10
2022-09-01T07:12:25.658Z,16.60
2022-09-01T07:20:26.759Z,16.60
2022-09-01T07:23:09.976Z,16.60
2022-09-01T07:28:40.004Z,16.50
2022-09-01T07:39:48.963Z,17.00
2022-09-01T07:47:55.094Z,17.10
2022-09-01T07:50:39.750Z,17.10
2022-09-01T07:53:09.201Z,17.10
2022-09-01T07:55:36.260Z,16.90
2022-09-01T07:58:02.946Z,16.80
2022-09-01T08:05:26.980Z,16.60
2022-09-01T08:07:53.931Z,16.00
2022-09-01T08:10:20.810Z,17.50
2022-09-01T08:12:56.283Z,16.40
2022-09-01T08:15:41.209Z,16.40
2022-09-01T08:20:39.833Z,16.40
2022-09-01T08:23:06.769Z,16.40
2022-09-01T08:25:34.354Z,16.60
2022-09-01T08:28:01.895Z,15.10
2022-09-01T08:32:57.727Z,16.80
2022-09-01T08:35:24.517Z,16.80
2022-09-01T08:40:19.354Z,17.20
2022-09-01T08:42:59.064Z,17.60
2022-09-01T08:45:48.110Z,17.50
2022-09-01T08:51:40.903Z,17.70
2022-09-01T08:54:31.843Z,17.50
2022-09-01T08:57:10.067Z,17.60
2022-09-01T08:59:36.981Z,17.50
2022-09-01T09:02:06.569Z,17.90
2022-09-01T09:04:49.109Z,17.80
2022-09-01T09:07:38.419Z,18.00
2022-09-01T09:10:16.974Z,18.20
2022-09-01T09:13:06.085Z,18.10
2022-09-01T09:16:07.856Z,18.10
2022-09-01T09:18:56.512Z,18.00
2022-09-01T09:21:26.269Z,17.80
2022-09-01T09:24:54.277Z,17.80
2022-09-01T09:27:37.039Z,17.90
2022-09-01T09:30:09.361Z,18.00
2022-09-01T09:35:44.080Z,17.90
2022-09-01T09:38:18.807Z,17.60
2022-09-01T09:44:00.046Z,18.30
2022-09-01T09:46:32.738Z,18.40
2022-09-01T09:49:34.804Z,21.30
2022-09-01T09:52:10.021Z,17.60
2022-09-01T09:55:01.465Z,18.60
2022-09-01T10:00:08.495Z,18.50
2022-09-01T10:02:37.118Z,19.00
2022-09-01T10:05:27.896Z,19.00
2022-09-01T10:10:30.857Z,19.70
2022-09-01T10:12:58.006Z,20.60
2022-09-01T10:15:30.953Z,18.80
2022-09-01T10:18:19.842Z,19.20
2022-09-01T10:21:12.312Z,20.10
2022-09-01T10:23:41.390Z,20.20
2022-09-01T10:26:11.263Z,21.70
2022-09-01T10:28:52.165Z,20.20
2022-09-01T10:31:19.425Z,20.00
2022-09-01T10:38:46.289Z,18.80
2022-09-01T10:41:59.303Z,18.70
2022-09-01T10:44:34.134Z,18.90
2022-09-01T10:47:04.102Z,18.60
2022-09-01T10:49:33.032Z,18.20
2022-09-01T10:52:07.461Z,18.30
2022-09-01T10:54:51.184Z,18.50
2022-09-01T10:57:30.915Z,18.60
2022-09-01T11:00:39.938Z,18.90
2022-09-01T11:06:12.289Z,18.90
2022-09-01T11:08:50.848Z,19.20
2022-09-01T11:11:20.506Z,19.30
2022-09-01T11:13:51.336Z,19.50
2022-09-01T11:16:48.005Z,19.80
2022-09-01T11:19:44.509Z,20.00
2022-09-01T11:22:29.095Z,20.20
2022-09-01T11:25:40.835Z,20.10
2022-09-01T11:28:18.032Z,20.20
2022-09-01T11:31:00.620Z,20.40
2022-09-01T11:33:47.946Z,20.50
2022-09-01T11:36:18.757Z,20.60
2022-09-01T11:38:55.531Z,20.60
2022-09-01T11:41:33.942Z,20.60
2022-09-01T11:44:04.204Z,20.50
2022-09-01T11:46:35.036Z,21.20
2022-09-01T11:49:09.023Z,21.20
2022-09-01T11:51:44.734Z,21.70
2022-09-01T11:54:11.793Z,21.70
2022-09-01T11:56:38.643Z,21.30
2022-09-01T11:59:05.319Z,21.30
2022-09-01T12:01:38.075Z,21.40
2022-09-01T12:04:25.442Z,21.60
2022-09-01T12:06:58.092Z,21.70
2022-09-01T12:09:34.322Z,21.50
2022-09-01T12:12:01.108Z,21.80
2022-09-01T12:14:38.945Z,22.00
2022-09-01T12:17:20.001Z,22.20
2022-09-01T12:19:46.699Z,22.40
2022-09-01T12:22:18.507Z,21.80
2022-09-01T12:24:47.176Z,22.40
2022-09-01T12:27:17.529Z,22.30
2022-09-01T12:29:44.420Z,22.70
2022-09-01T12:32:11.747Z,22.70
2022-09-01T12:34:47.908Z,22.40
2022-09-01T12:37:21.910Z,21.90
2022-09-01T12:39:54.429Z,21.80
2022-09-01T12:42:27.578Z,22.10
2022-09-01T12:44:57.432Z,21.50
2022-09-01T12:47:33.574Z,21.70
2022-09-01T12:50:30.124Z,21.20
2022-09-01T12:53:00.358Z,21.40
2022-09-01T12:55:50.266Z,21.40
2022-09-01T12:58:22.115Z,21.50
2022-09-01T13:01:12.278Z,21.40
2022-09-01T13:03:43.746Z,21.30
2022-09-01T13:06:11.031Z,21.60
2022-09-01T13:08:37.929Z,21.40
2022-09-01T13:11:13.081Z,21.50
2022-09-01T13:13:40.117Z,22.80
2022-09-01T13:16:13.043Z,22.10
2022-09-01T13:21:27.661Z,21.70
2022-09-01T13:23:54.711Z,23.60
2022-09-01T13:26:21.561Z,21.70
2022-09-01T13:28:48.362Z,21.70
2022-09-01T13:31:30.772Z,21.40
2022-09-01T13:34:22.847Z,21.30
2022-09-01T13:39:19.229Z,21.20
2022-09-01T13:41:49.593Z,21.20
2022-09-01T13:44:17.350Z,21.20
2022-09-01T13:47:00.928Z,21.30
2022-09-01T13:49:44.439Z,21.20
2022-09-01T13:52:21.873Z,21.20
2022-09-01T13:57:16.577Z,21.10
2022-09-01T13:59:43.936Z,21.10
2022-09-01T14:04:38.197Z,21.20
2022-09-01T14:07:05.022Z,21.20
2022-09-01T14:09:31.759Z,21.40
2022-09-01T14:16:54.031Z,21.10
2022-09-01T14:21:49.646Z,21.30
2022-09-01T14:26:47.567Z,21.00
2022-09-01T14:29:14.252Z,21.20
2022-09-01T14:31:43.475Z,21.40
2022-09-01T14:34:12.200Z,21.60
2022-09-01T14:36:39.132Z,21.70
2022-09-01T14:39:06.315Z,21.60
2022-09-01T14:41:33.891Z,21.40
2022-09-01T14:44:03.323Z,21.70
2022-09-01T14:49:02.049Z,21.80
2022-09-01T14:54:16.385Z,21.90
2022-09-01T14:57:27.801Z,21.90
2022-09-01T15:01:57.201Z,21.20
2022-09-01T15:04:24.020Z,20.80
2022-09-01T15:09:19.279Z,20.10
2022-09-01T15:11:46.070Z,20.40
2022-09-01T15:19:12.593Z,21.30
2022-09-01T15:21:40.224Z,21.30
2022-09-01T15:24:07.518Z,21.50
2022-09-01T15:26:35.324Z,21.60
2022-09-01T15:29:02.040Z,21.70
2022-09-01T15:31:32.825Z,22.60
2022-09-01T15:34:01.580Z,21.80
2022-09-01T15:36:28.870Z,21.90
2022-09-01T15:41:25.059Z,21.70
2022-09-01T15:43:52.205Z,21.30
2022-09-01T15:46:19.159Z,21.30
2022-09-01T15:48:45.930Z,21.50
2022-09-01T15:51:29.427Z,21.40
2022-09-01T15:54:02.612Z,21.40
2022-09-01T15:56:31.266Z,21.30
2022-09-01T16:01:29.600Z,21.50
2022-09-01T16:03:56.412Z,21.40
2022-09-01T16:06:24.322Z,20.20
2022-09-01T16:11:23.451Z,21.00
2022-09-01T16:16:45.421Z,20.90
2022-09-01T16:19:18.181Z,20.90
2022-09-01T16:22:00.564Z,20.90
2022-09-01T16:24:27.356Z,20.90
2022-09-01T16:26:54.039Z,21.00
2022-09-01T16:29:45.185Z,21.00
2022-09-01T16:34:46.686Z,20.70
2022-09-01T16:37:31.444Z,20.70
2022-09-01T16:40:14.003Z,19.80
2022-09-01T16:42:46.782Z,20.40
2022-09-01T16:45:32.422Z,20.30
2022-09-01T16:48:17.081Z,20.30
2022-09-01T16:51:03.386Z,20.20
2022-09-01T16:53:48.215Z,20.20
2022-09-01T16:56:32.077Z,20.10
2022-09-01T16:59:32.681Z,19.90
2022-09-01T17:02:15.815Z,19.70
2022-09-01T17:04:49.219Z,20.10
2022-09-01T17:07:29.441Z,20.90
2022-09-01T17:10:33.422Z,21.30
2022-09-01T17:13:25.992Z,21.50
2022-09-01T17:16:12.646Z,21.80
2022-09-01T17:18:44.800Z,21.70
2022-09-01T17:21:36.918Z,21.00
2022-09-01T17:24:12.297Z,20.90
2022-09-01T17:26:40.187Z,20.40
2022-09-01T17:29:25.769Z,19.90
2022-09-01T17:32:23.818Z,19.10
2022-09-01T17:35:09.127Z,21.20
2022-09-01T17:37:56.327Z,18.60
2022-09-01T17:40:33.290Z,18.40
2022-09-01T17:43:05.702Z,18.40
2022-09-01T17:45:47.738Z,18.30
2022-09-01T17:48:18.215Z,18.10
2022-09-01T17:53:19.406Z,17.90
2022-09-01T17:55:51.048Z,17.70
2022-09-01T17:58:23.531Z,17.50
2022-09-01T18:01:09.237Z,17.40
2022-09-01T18:03:51.181Z,17.30
2022-09-01T18:06:30.386Z,17.20
2022-09-01T18:09:00.885Z,16.90
2022-09-01T18:12:00.019Z,16.80
2022-09-01T18:14:39.642Z,16.60
2022-09-01T18:17:29.210Z,16.60
2022-09-01T18:20:19.622Z,16.60
2022-09-01T18:23:10.317Z,16.40
2022-09-01T18:25:41.005Z,16.20
2022-09-01T18:28:08.331Z,16.10
2022-09-01T18:31:01.391Z,15.90
2022-09-01T18:34:00.193Z,17.40
2022-09-01T18:36:33.584Z,13.80
2022-09-01T18:39:07.687Z,15.60
2022-09-01T18:41:41.262Z,15.50
2022-09-01T18:44:43.396Z,15.50
2022-09-01T18:47:14.834Z,15.40
2022-09-01T18:50:00.425Z,15.20
2022-09-01T18:52:35.158Z,15.20
2022-09-01T18:57:36.522Z,15.10
2022-09-01T19:00:16.971Z,14.90
2022-09-01T19:05:16.594Z,14.70
2022-09-01T19:07:47.059Z,14.70
2022-09-01T19:10:19.470Z,14.60
2022-09-01T19:12:54.280Z,15.50
2022-09-01T19:16:13.891Z,14.40
2022-09-01T19:19:00.708Z,14.50
2022-09-01T19:21:32.180Z,14.40
2022-09-01T19:24:14.873Z,14.30
2022-09-01T19:26:43.859Z,14.20
2022-09-01T19:29:19.037Z,15.70
2022-09-01T19:31:50.697Z,14.10
2022-09-01T19:34:25.901Z,14.00
2022-09-01T19:36:53.440Z,13.90
2022-09-01T19:39:27.013Z,15.10
2022-09-01T19:42:28.329Z,14.50
2022-09-01T19:45:09.659Z,13.90
2022-09-01T19:47:43.533Z,13.80
2022-09-01T19:50:31.117Z,15.50
2022-09-01T19:53:15.083Z,13.70
2022-09-01T19:55:44.845Z,13.70
2022-09-01T19:58:25.388Z,13.60
2022-09-01T20:00:57.037Z,13.60
2022-09-01T20:03:37.156Z,13.60
2022-09-01T20:06:12.024Z,13.60
2022-09-01T20:08:48.799Z,13.60
2022-09-01T20:11:48.034Z,13.50
2022-09-01T20:14:32.406Z,14.50
2022-09-01T20:17:04.507Z,13.40
2022-09-01T20:19:48.091Z,13.20
2022-09-01T20:22:46.825Z,13.30
2022-09-01T20:25:22.362Z,13.20
2022-09-01T20:27:56.860Z,13.20
2022-09-01T20:30:27.239Z,13.20
2022-09-01T20:33:07.816Z,13.20
2022-09-01T20:35:50.614Z,13.10
2022-09-01T20:38:42.128Z,13.20
2022-09-01T20:41:39.260Z,13.20
2022-09-01T20:44:08.564Z,13.80
2022-09-01T20:46:35.480Z,13.20
2022-09-01T20:51:54.858Z,13.10
2022-09-01T20:54:28.619Z,13.10
2022-09-01T20:57:01.150Z,14.00
2022-09-01T21:00:11.408Z,13.00
2022-09-01T21:02:51.177Z,12.90
2022-09-01T21:05:47.347Z,12.90
2022-09-01T21:08:26.225Z,12.90
2022-09-01T21:11:14.432Z,12.80
2022-09-01T21:13:44.319Z,12.80
2022-09-01T21:16:26.973Z,12.80
2022-09-01T21:19:00.207Z,12.70
2022-09-01T21:26:22.917Z,12.90
2022-09-01T21:28:55.428Z,13.00
2022-09-01T21:31:24.135Z,13.50
2022-09-01T21:33:51.162Z,12.60
2022-09-01T21:36:18.087Z,13.80
2022-09-01T21:41:13.179Z,12.60
2022-09-01T21:43:41.761Z,12.50
2022-09-01T21:46:09.207Z,12.50
2022-09-01T21:48:36.669Z,12.50
2022-09-01T21:53:33.511Z,12.40
2022-09-01T21:56:00.237Z,12.40
2022-09-01T21:58:26.993Z,13.40
2022-09-01T22:00:54.230Z,12.30
2022-09-01T22:03:21.107Z,12.20
2022-09-01T22:05:47.981Z,13.00
2022-09-01T22:08:17.264Z,12.20
2022-09-01T22:10:49.477Z,12.20
2022-09-01T22:13:16.442Z,12.20
2022-09-01T22:15:44.417Z,12.50
2022-09-01T22:18:11.297Z,13.60
2022-09-01T22:20:38.058Z,12.40
2022-09-01T22:25:32.525Z,12.20
2022-09-01T22:28:00.474Z,12.10
2022-09-01T22:30:27.250Z,12.10
2022-09-01T22:32:54.322Z,12.20
2022-09-01T22:35:21.205Z,11.90
2022-09-01T22:37:48.047Z,12.00
2022-09-01T22:40:15.592Z,11.70
2022-09-01T22:42:42.927Z,12.00
2022-09-01T22:50:06.755Z,11.80
2022-09-01T22:55:03.329Z,11.90
2022-09-01T23:04:52.187Z,11.80
2022-09-01T23:07:18.983Z,11.80
2022-09-01T23:09:45.755Z,14.80
2022-09-01T23:12:13.678Z,11.70
2022-09-01T23:14:41.446Z,11.70
2022-09-01T23:22:03.194Z,11.70
2022-09-01T23:29:25.300Z,11.70
2022-09-01T23:39:13.553Z,11.60
2022-09-01T23:44:09.563Z,11.50
2022-09-01T23:46:42.055Z,11.50
2022-09-01T23:49:09.015Z,11.90
2022-09-01T23:51:35.798Z,11.50
2022-09-01T23:56:29.941Z,11.40
